sensor_id;sensor_type;location;lat;lon;timestamp;temperature;humidity
57564;DHT22;43400;45.926;6.724;2023-02-01T00:01:29;1.10;95.10
57564;DHT22;43400;45.926;6.724;2023-02-01T00:04:05;1.00;94.90
57564;DHT22;43400;45.926;6.724;2023-02-01T00:06:43;0.80;95.60
57564;DHT22;43400;45.926;6.724;2023-02-01T00:09:15;0.80;96.10
57564;DHT22;43400;45.926;6.724;2023-02-01T00:11:47;0.80;96.20
57564;DHT22;43400;45.926;6.724;2023-02-01T00:14:25;0.80;96.10
57564;DHT22;43400;45.926;6.724;2023-02-01T00:16:57;0.70;96.00
57564;DHT22;43400;45.926;6.724;2023-02-01T00:19:31;0.70;95.70
57564;DHT22;43400;45.926;6.724;2023-02-01T00:22:06;0.70;96.10
57564;DHT22;43400;45.926;6.724;2023-02-01T00:24:46;0.60;96.20
57564;DHT22;43400;45.926;6.724;2023-02-01T00:27:48;0.50;96.20
57564;DHT22;43400;45.926;6.724;2023-02-01T00:30:24;0.40;96.60
57564;DHT22;43400;45.926;6.724;2023-02-01T00:33:02;0.30;97.20
57564;DHT22;43400;45.926;6.724;2023-02-01T00:35:40;0.20;98.20
57564;DHT22;43400;45.926;6.724;2023-02-01T00:38:21;0.20;99.40
57564;DHT22;43400;45.926;6.724;2023-02-01T00:41:14;0.20;99.90
57564;DHT22;43400;45.926;6.724;2023-02-01T00:43:48;0.20;99.90
57564;DHT22;43400;45.926;6.724;2023-02-01T00:46:24;0.20;99.90
57564;DHT22;43400;45.926;6.724;2023-02-01T00:48:56;0.30;99.90
57564;DHT22;43400;45.926;6.724;2023-02-01T00:51:38;0.30;99.90
57564;DHT22;43400;45.926;6.724;2023-02-01T00:54:14;0.30;99.20
57564;DHT22;43400;45.926;6.724;2023-02-01T00:56:53;0.30;99.40
57564;DHT22;43400;45.926;6.724;2023-02-01T00:59:25;0.40;99.50
57564;DHT22;43400;45.926;6.724;2023-02-01T01:02:04;0.30;99.30
57564;DHT22;43400;45.926;6.724;2023-02-01T01:04:39;0.30;99.40
57564;DHT22;43400;45.926;6.724;2023-02-01T01:07:12;0.30;99.90
57564;DHT22;43400;45.926;6.724;2023-02-01T01:09:47;0.40;99.40
57564;DHT22;43400;45.926;6.724;2023-02-01T01:12:29;0.40;99.10
57564;DHT22;43400;45.926;6.724;2023-02-01T01:15:06;0.40;98.70
57564;DHT22;43400;45.926;6.724;2023-02-01T01:17:44;0.40;98.20
57564;DHT22;43400;45.926;6.724;2023-02-01T01:20:23;0.40;98.20
57564;DHT22;43400;45.926;6.724;2023-02-01T01:22:59;0.40;98.40
57564;DHT22;43400;45.926;6.724;2023-02-01T01:25:32;0.30;97.60
57564;DHT22;43400;45.926;6.724;2023-02-01T01:28:04;0.20;97.60
57564;DHT22;43400;45.926;6.724;2023-02-01T01:30:37;0.20;97.80
57564;DHT22;43400;45.926;6.724;2023-02-01T01:33:27;0.10;98.10
57564;DHT22;43400;45.926;6.724;2023-02-01T01:36:01;0.00;98.70
57564;DHT22;43400;45.926;6.724;2023-02-01T01:38:39;0.00;99.20
57564;DHT22;43400;45.926;6.724;2023-02-01T01:41:20;-0.10;99.20
57564;DHT22;43400;45.926;6.724;2023-02-01T01:47:27;-0.30;98.60
57564;DHT22;43400;45.926;6.724;2023-02-01T01:50:07;-0.30;98.50
57564;DHT22;43400;45.926;6.724;2023-02-01T01:53:10;-0.30;98.20
57564;DHT22;43400;45.926;6.724;2023-02-01T01:55:50;-0.40;98.00
57564;DHT22;43400;45.926;6.724;2023-02-01T01:58:32;-0.40;97.70
57564;DHT22;43400;45.926;6.724;2023-02-01T02:01:08;-0.40;97.70
57564;DHT22;43400;45.926;6.724;2023-02-01T02:03:42;-0.50;98.00
57564;DHT22;43400;45.926;6.724;2023-02-01T02:09:10;-0.60;99.90
57564;DHT22;43400;45.926;6.724;2023-02-01T02:11:42;-0.50;99.90
57564;DHT22;43400;45.926;6.724;2023-02-01T02:14:17;-0.60;99.10
57564;DHT22;43400;45.926;6.724;2023-02-01T02:20:44;-0.70;99.00
57564;DHT22;43400;45.926;6.724;2023-02-01T02:23:47;-0.70;98.80
57564;DHT22;43400;45.926;6.724;2023-02-01T02:29:36;-0.80;99.20
57564;DHT22;43400;45.926;6.724;2023-02-01T02:35:59;-0.90;99.40
57564;DHT22;43400;45.926;6.724;2023-02-01T02:38:35;-0.90;99.50
57564;DHT22;43400;45.926;6.724;2023-02-01T02:48:12;-0.80;99.40
57564;DHT22;43400;45.926;6.724;2023-02-01T02:51:01;-0.90;99.30
57564;DHT22;43400;45.926;6.724;2023-02-01T02:56:29;-1.10;99.90
57564;DHT22;43400;45.926;6.724;2023-02-01T02:59:02;-1.10;99.90
57564;DHT22;43400;45.926;6.724;2023-02-01T03:01:36;-1.10;99.90
57564;DHT22;43400;45.926;6.724;2023-02-01T03:04:10;-1.10;99.90
57564;DHT22;43400;45.926;6.724;2023-02-01T03:06:44;-1.10;99.90
57564;DHT22;43400;45.926;6.724;2023-02-01T03:09:31;-1.20;99.90
57564;DHT22;43400;45.926;6.724;2023-02-01T03:12:11;-1.20;99.90
57564;DHT22;43400;45.926;6.724;2023-02-01T03:15:11;-1.20;99.90
57564;DHT22;43400;45.926;6.724;2023-02-01T03:17:45;-1.20;99.90
57564;DHT22;43400;45.926;6.724;2023-02-01T03:20:27;-1.20;99.90
57564;DHT22;43400;45.926;6.724;2023-02-01T03:23:27;-1.30;99.90
57564;DHT22;43400;45.926;6.724;2023-02-01T03:26:02;-1.30;99.90
57564;DHT22;43400;45.926;6.724;2023-02-01T03:28:49;-1.30;99.90
57564;DHT22;43400;45.926;6.724;2023-02-01T03:31:28;-1.40;99.90
57564;DHT22;43400;45.926;6.724;2023-02-01T03:34:11;-1.30;99.90
57564;DHT22;43400;45.926;6.724;2023-02-01T03:36:55;-1.40;99.90
57564;DHT22;43400;45.926;6.724;2023-02-01T03:40:07;-1.40;99.90
57564;DHT22;43400;45.926;6.724;2023-02-01T03:42:54;-1.40;99.90
57564;DHT22;43400;45.926;6.724;2023-02-01T03:45:36;-1.40;99.90
57564;DHT22;43400;45.926;6.724;2023-02-01T03:48:15;-1.40;99.90
57564;DHT22;43400;45.926;6.724;2023-02-01T03:50:54;-1.40;99.90
57564;DHT22;43400;45.926;6.724;2023-02-01T03:53:30;-1.30;99.90
57564;DHT22;43400;45.926;6.724;2023-02-01T03:56:06;-1.30;99.90
57564;DHT22;43400;45.926;6.724;2023-02-01T03:58:41;-1.40;99.90
57564;DHT22;43400;45.926;6.724;2023-02-01T04:01:22;-1.40;99.90
57564;DHT22;43400;45.926;6.724;2023-02-01T04:03:55;-1.40;99.90
57564;DHT22;43400;45.926;6.724;2023-02-01T04:06:41;-1.50;99.90
57564;DHT22;43400;45.926;6.724;2023-02-01T04:09:13;-1.50;99.90
57564;DHT22;43400;45.926;6.724;2023-02-01T04:11:45;-1.60;99.90
57564;DHT22;43400;45.926;6.724;2023-02-01T04:14:20;-1.60;99.90
57564;DHT22;43400;45.926;6.724;2023-02-01T04:16:57;-1.50;99.90
57564;DHT22;43400;45.926;6.724;2023-02-01T04:19:35;-1.50;99.90
57564;DHT22;43400;45.926;6.724;2023-02-01T04:22:10;-1.50;99.90
57564;DHT22;43400;45.926;6.724;2023-02-01T04:24:42;-1.50;99.90
57564;DHT22;43400;45.926;6.724;2023-02-01T04:27:14;-1.50;99.90
57564;DHT22;43400;45.926;6.724;2023-02-01T04:29:50;-1.50;99.90
57564;DHT22;43400;45.926;6.724;2023-02-01T04:32:23;-1.50;99.90
57564;DHT22;43400;45.926;6.724;2023-02-01T04:34:57;-1.60;99.90
57564;DHT22;43400;45.926;6.724;2023-02-01T04:37:29;-1.60;99.90
57564;DHT22;43400;45.926;6.724;2023-02-01T04:40:07;-1.60;99.90
57564;DHT22;43400;45.926;6.724;2023-02-01T04:42:44;-1.70;99.90
57564;DHT22;43400;45.926;6.724;2023-02-01T04:45:19;-1.60;99.90
57564;DHT22;43400;45.926;6.724;2023-02-01T04:48:16;-1.60;99.90
57564;DHT22;43400;45.926;6.724;2023-02-01T04:51:00;-1.70;99.90
57564;DHT22;43400;45.926;6.724;2023-02-01T04:53:36;-1.80;99.90
57564;DHT22;43400;45.926;6.724;2023-02-01T04:56:09;-1.80;99.90
57564;DHT22;43400;45.926;6.724;2023-02-01T04:58:53;-1.80;99.90
57564;DHT22;43400;45.926;6.724;2023-02-01T05:02:05;-1.80;99.90
57564;DHT22;43400;45.926;6.724;2023-02-01T05:04:37;-1.80;99.90
57564;DHT22;43400;45.926;6.724;2023-02-01T05:07:11;-1.90;99.90
57564;DHT22;43400;45.926;6.724;2023-02-01T05:09:49;-1.90;99.90
57564;DHT22;43400;45.926;6.724;2023-02-01T05:12:32;-2.00;99.90
57564;DHT22;43400;45.926;6.724;2023-02-01T05:15:08;-2.00;99.90
57564;DHT22;43400;45.926;6.724;2023-02-01T05:17:43;-2.00;99.90
57564;DHT22;43400;45.926;6.724;2023-02-01T05:20:15;-2.00;99.90
57564;DHT22;43400;45.926;6.724;2023-02-01T05:22:48;-2.00;99.90
57564;DHT22;43400;45.926;6.724;2023-02-01T05:25:28;-2.00;99.90
57564;DHT22;43400;45.926;6.724;2023-02-01T05:28:07;-2.00;99.90
57564;DHT22;43400;45.926;6.724;2023-02-01T05:30:42;-2.00;99.90
57564;DHT22;43400;45.926;6.724;2023-02-01T05:33:14;-2.00;99.90
57564;DHT22;43400;45.926;6.724;2023-02-01T05:35:45;-2.00;99.90
57564;DHT22;43400;45.926;6.724;2023-02-01T05:38:21;-2.10;99.90
57564;DHT22;43400;45.926;6.724;2023-02-01T05:40:53;-2.10;99.90
57564;DHT22;43400;45.926;6.724;2023-02-01T05:43:31;-2.10;99.90
57564;DHT22;43400;45.926;6.724;2023-02-01T05:46:03;-2.10;99.90
57564;DHT22;43400;45.926;6.724;2023-02-01T05:48:38;-2.10;99.90
57564;DHT22;43400;45.926;6.724;2023-02-01T05:51:17;-2.10;99.90
57564;DHT22;43400;45.926;6.724;2023-02-01T05:53:58;-2.20;99.90
57564;DHT22;43400;45.926;6.724;2023-02-01T05:56:30;-2.10;99.90
57564;DHT22;43400;45.926;6.724;2023-02-01T05:59:05;-2.10;99.90
57564;DHT22;43400;45.926;6.724;2023-02-01T06:01:37;-2.10;99.90
57564;DHT22;43400;45.926;6.724;2023-02-01T06:04:11;-2.10;99.90
57564;DHT22;43400;45.926;6.724;2023-02-01T06:06:55;-2.20;99.90
57564;DHT22;43400;45.926;6.724;2023-02-01T06:09:27;-2.20;99.90
57564;DHT22;43400;45.926;6.724;2023-02-01T06:12:05;-2.30;99.90
57564;DHT22;43400;45.926;6.724;2023-02-01T06:14:52;-2.20;99.90
57564;DHT22;43400;45.926;6.724;2023-02-01T06:17:50;-2.20;99.90
57564;DHT22;43400;45.926;6.724;2023-02-01T06:20:32;-2.20;99.90
57564;DHT22;43400;45.926;6.724;2023-02-01T06:23:14;-2.20;99.90
57564;DHT22;43400;45.926;6.724;2023-02-01T06:26:04;-2.10;99.90
57564;DHT22;43400;45.926;6.724;2023-02-01T06:28:45;-2.20;99.90
57564;DHT22;43400;45.926;6.724;2023-02-01T06:31:17;-2.30;99.90
57564;DHT22;43400;45.926;6.724;2023-02-01T06:33:49;-2.30;99.90
57564;DHT22;43400;45.926;6.724;2023-02-01T06:36:23;-2.30;99.90
57564;DHT22;43400;45.926;6.724;2023-02-01T06:38:56;-2.30;99.90
57564;DHT22;43400;45.926;6.724;2023-02-01T06:41:29;-2.30;99.90
57564;DHT22;43400;45.926;6.724;2023-02-01T06:44:01;-2.30;99.90
57564;DHT22;43400;45.926;6.724;2023-02-01T06:46:36;-2.40;99.90
57564;DHT22;43400;45.926;6.724;2023-02-01T06:49:07;-2.40;99.90
57564;DHT22;43400;45.926;6.724;2023-02-01T06:51:39;-2.40;99.90
57564;DHT22;43400;45.926;6.724;2023-02-01T06:54:11;-2.50;99.90
57564;DHT22;43400;45.926;6.724;2023-02-01T06:56:43;-2.50;99.90
57564;DHT22;43400;45.926;6.724;2023-02-01T06:59:14;-2.60;99.90
57564;DHT22;43400;45.926;6.724;2023-02-01T07:01:46;-2.60;99.90
57564;DHT22;43400;45.926;6.724;2023-02-01T07:04:18;-2.70;99.90
57564;DHT22;43400;45.926;6.724;2023-02-01T07:06:50;-2.80;99.90
57564;DHT22;43400;45.926;6.724;2023-02-01T07:09:21;-2.70;99.90
57564;DHT22;43400;45.926;6.724;2023-02-01T07:11:53;-2.70;99.90
57564;DHT22;43400;45.926;6.724;2023-02-01T07:14:25;-2.60;99.90
57564;DHT22;43400;45.926;6.724;2023-02-01T07:16:56;-2.70;99.90
57564;DHT22;43400;45.926;6.724;2023-02-01T07:19:28;-2.70;99.90
57564;DHT22;43400;45.926;6.724;2023-02-01T07:22:00;-2.70;99.90
57564;DHT22;43400;45.926;6.724;2023-02-01T07:24:33;-2.60;99.90
57564;DHT22;43400;45.926;6.724;2023-02-01T07:27:05;-2.70;99.90
57564;DHT22;43400;45.926;6.724;2023-02-01T07:29:37;-2.70;99.90
57564;DHT22;43400;45.926;6.724;2023-02-01T07:32:09;-2.70;99.90
57564;DHT22;43400;45.926;6.724;2023-02-01T07:34:40;-2.70;99.90
57564;DHT22;43400;45.926;6.724;2023-02-01T07:37:12;-2.70;99.90
57564;DHT22;43400;45.926;6.724;2023-02-01T07:39:44;-2.70;99.90
57564;DHT22;43400;45.926;6.724;2023-02-01T07:42:15;-2.70;99.90
57564;DHT22;43400;45.926;6.724;2023-02-01T07:44:47;-2.70;99.90
57564;DHT22;43400;45.926;6.724;2023-02-01T07:47:19;-2.60;99.90
57564;DHT22;43400;45.926;6.724;2023-02-01T07:49:50;-2.60;99.90
57564;DHT22;43400;45.926;6.724;2023-02-01T07:52:22;-2.60;99.90
57564;DHT22;43400;45.926;6.724;2023-02-01T07:54:54;-2.50;99.90
57564;DHT22;43400;45.926;6.724;2023-02-01T07:57:25;-2.60;99.90
57564;DHT22;43400;45.926;6.724;2023-02-01T07:59:57;-2.50;99.90
57564;DHT22;43400;45.926;6.724;2023-02-01T08:02:29;-2.50;99.90
57564;DHT22;43400;45.926;6.724;2023-02-01T08:05:00;-2.40;99.90
57564;DHT22;43400;45.926;6.724;2023-02-01T08:07:32;-2.40;99.90
57564;DHT22;43400;45.926;6.724;2023-02-01T08:10:04;-2.30;99.90
57564;DHT22;43400;45.926;6.724;2023-02-01T08:12:36;-2.30;99.90
57564;DHT22;43400;45.926;6.724;2023-02-01T08:15:09;-2.30;99.90
57564;DHT22;43400;45.926;6.724;2023-02-01T08:17:49;-2.30;99.90
57564;DHT22;43400;45.926;6.724;2023-02-01T08:20:22;-2.30;99.90
57564;DHT22;43400;45.926;6.724;2023-02-01T08:22:54;-2.30;99.90
57564;DHT22;43400;45.926;6.724;2023-02-01T08:25:26;-2.10;99.90
57564;DHT22;43400;45.926;6.724;2023-02-01T08:27:58;-2.00;99.90
57564;DHT22;43400;45.926;6.724;2023-02-01T08:30:32;-2.00;99.90
57564;DHT22;43400;45.926;6.724;2023-02-01T08:33:05;-2.10;99.90
57564;DHT22;43400;45.926;6.724;2023-02-01T08:35:38;-2.00;99.90
57564;DHT22;43400;45.926;6.724;2023-02-01T08:38:10;-2.00;99.90
57564;DHT22;43400;45.926;6.724;2023-02-01T08:40:41;-1.80;99.90
57564;DHT22;43400;45.926;6.724;2023-02-01T08:43:13;-1.70;99.90
57564;DHT22;43400;45.926;6.724;2023-02-01T08:45:45;-1.70;99.90
57564;DHT22;43400;45.926;6.724;2023-02-01T08:48:17;-1.80;99.90
57564;DHT22;43400;45.926;6.724;2023-02-01T08:50:49;-1.80;99.90
57564;DHT22;43400;45.926;6.724;2023-02-01T08:53:20;-1.90;99.90
57564;DHT22;43400;45.926;6.724;2023-02-01T08:55:52;-1.90;99.90
57564;DHT22;43400;45.926;6.724;2023-02-01T08:58:24;-1.90;99.90
57564;DHT22;43400;45.926;6.724;2023-02-01T09:00:55;-1.80;99.90
57564;DHT22;43400;45.926;6.724;2023-02-01T09:03:27;-1.70;99.90
57564;DHT22;43400;45.926;6.724;2023-02-01T09:06:00;-1.70;99.90
57564;DHT22;43400;45.926;6.724;2023-02-01T09:08:33;-1.70;99.90
57564;DHT22;43400;45.926;6.724;2023-02-01T09:11:08;-1.70;99.90
57564;DHT22;43400;45.926;6.724;2023-02-01T09:13:42;-1.70;99.90
57564;DHT22;43400;45.926;6.724;2023-02-01T09:16:14;-1.80;99.90
57564;DHT22;43400;45.926;6.724;2023-02-01T09:18:46;-1.70;99.90
57564;DHT22;43400;45.926;6.724;2023-02-01T09:21:17;-1.60;99.90
57564;DHT22;43400;45.926;6.724;2023-02-01T09:23:51;-1.50;99.90
57564;DHT22;43400;45.926;6.724;2023-02-01T09:26:22;-1.50;99.90
57564;DHT22;43400;45.926;6.724;2023-02-01T09:28:54;-1.50;99.90
57564;DHT22;43400;45.926;6.724;2023-02-01T09:31:26;-1.40;99.90
57564;DHT22;43400;45.926;6.724;2023-02-01T09:33:57;-1.40;99.90
57564;DHT22;43400;45.926;6.724;2023-02-01T09:36:29;-1.30;99.90
57564;DHT22;43400;45.926;6.724;2023-02-01T09:39:01;-1.20;99.90
57564;DHT22;43400;45.926;6.724;2023-02-01T09:48:02;-1.20;99.90
57564;DHT22;43400;45.926;6.724;2023-02-01T09:50:37;-1.10;99.90
57564;DHT22;43400;45.926;6.724;2023-02-01T09:53:15;-1.10;99.90
57564;DHT22;43400;45.926;6.724;2023-02-01T09:55:51;-1.10;99.90
57564;DHT22;43400;45.926;6.724;2023-02-01T10:01:13;-1.00;99.90
57564;DHT22;43400;45.926;6.724;2023-02-01T10:03:46;-0.70;99.90
57564;DHT22;43400;45.926;6.724;2023-02-01T10:23:47;1.60;95.80
57564;DHT22;43400;45.926;6.724;2023-02-01T10:26:24;2.00;94.20
57564;DHT22;43400;45.926;6.724;2023-02-01T10:29:00;2.40;93.60
57564;DHT22;43400;45.926;6.724;2023-02-01T10:31:35;2.70;93.20
57564;DHT22;43400;45.926;6.724;2023-02-01T10:34:31;3.10;92.40
57564;DHT22;43400;45.926;6.724;2023-02-01T10:37:32;3.30;91.30
57564;DHT22;43400;45.926;6.724;2023-02-01T10:40:20;3.60;90.40
57564;DHT22;43400;45.926;6.724;2023-02-01T10:42:56;3.90;87.60
57564;DHT22;43400;45.926;6.724;2023-02-01T10:45:33;4.20;85.50
57564;DHT22;43400;45.926;6.724;2023-02-01T10:48:08;4.80;85.70
57564;DHT22;43400;45.926;6.724;2023-02-01T10:51:00;7.20;79.10
57564;DHT22;43400;45.926;6.724;2023-02-01T10:53:59;9.60;67.20
57564;DHT22;43400;45.926;6.724;2023-02-01T10:56:37;11.80;60.70
57564;DHT22;43400;45.926;6.724;2023-02-01T10:59:23;13.40;54.50
57564;DHT22;43400;45.926;6.724;2023-02-01T11:02:00;13.80;51.10
57564;DHT22;43400;45.926;6.724;2023-02-01T11:04:36;14.90;48.30
57564;DHT22;43400;45.926;6.724;2023-02-01T11:07:19;15.70;46.70
57564;DHT22;43400;45.926;6.724;2023-02-01T11:09:55;16.70;44.30
57564;DHT22;43400;45.926;6.724;2023-02-01T11:13:02;17.80;42.80
57564;DHT22;43400;45.926;6.724;2023-02-01T11:23:52;18.30;40.40
57564;DHT22;43400;45.926;6.724;2023-02-01T11:26:40;19.00;38.80
57564;DHT22;43400;45.926;6.724;2023-02-01T11:29:15;19.60;38.10
57564;DHT22;43400;45.926;6.724;2023-02-01T11:31:48;19.10;37.60
57564;DHT22;43400;45.926;6.724;2023-02-01T11:34:24;18.30;39.00
57564;DHT22;43400;45.926;6.724;2023-02-01T11:37:00;19.10;38.80
57564;DHT22;43400;45.926;6.724;2023-02-01T11:39:34;19.90;37.50
57564;DHT22;43400;45.926;6.724;2023-02-01T11:42:14;18.80;37.40
57564;DHT22;43400;45.926;6.724;2023-02-01T11:48:41;18.80;37.20
57564;DHT22;43400;45.926;6.724;2023-02-01T11:51:50;18.60;37.20
57564;DHT22;43400;45.926;6.724;2023-02-01T11:57:33;18.90;37.90
57564;DHT22;43400;45.926;6.724;2023-02-01T12:00:35;19.10;37.30
57564;DHT22;43400;45.926;6.724;2023-02-01T12:27:31;20.50;35.50
57564;DHT22;43400;45.926;6.724;2023-02-01T12:44:51;21.00;34.30
57564;DHT22;43400;45.926;6.724;2023-02-01T12:50:45;20.50;33.80
57564;DHT22;43400;45.926;6.724;2023-02-01T12:56:11;20.70;34.50
57564;DHT22;43400;45.926;6.724;2023-02-01T12:58:51;21.40;34.50
57564;DHT22;43400;45.926;6.724;2023-02-01T13:01:51;21.70;34.20
57564;DHT22;43400;45.926;6.724;2023-02-01T13:05:11;21.60;33.60
57564;DHT22;43400;45.926;6.724;2023-02-01T13:07:51;21.30;33.60
57564;DHT22;43400;45.926;6.724;2023-02-01T13:10:49;21.50;34.00
57564;DHT22;43400;45.926;6.724;2023-02-01T13:13:45;21.60;34.00
57564;DHT22;43400;45.926;6.724;2023-02-01T13:16:23;21.70;33.90
57564;DHT22;43400;45.926;6.724;2023-02-01T13:19:09;21.40;34.10
57564;DHT22;43400;45.926;6.724;2023-02-01T13:21:46;21.40;33.80
57564;DHT22;43400;45.926;6.724;2023-02-01T13:24:44;21.30;33.90
57564;DHT22;43400;45.926;6.724;2023-02-01T13:27:17;20.80;34.40
57564;DHT22;43400;45.926;6.724;2023-02-01T13:29:57;19.80;34.50
57564;DHT22;43400;45.926;6.724;2023-02-01T13:44:11;19.40;36.20
57564;DHT22;43400;45.926;6.724;2023-02-01T13:46:46;20.10;36.20
57564;DHT22;43400;45.926;6.724;2023-02-01T13:49:22;20.20;35.30
57564;DHT22;43400;45.926;6.724;2023-02-01T13:51:56;20.40;35.10
57564;DHT22;43400;45.926;6.724;2023-02-01T13:54:34;20.40;34.70
57564;DHT22;43400;45.926;6.724;2023-02-01T13:57:46;20.50;35.00
57564;DHT22;43400;45.926;6.724;2023-02-01T14:00:30;20.50;34.50
57564;DHT22;43400;45.926;6.724;2023-02-01T14:08:13;20.80;33.60
57564;DHT22;43400;45.926;6.724;2023-02-01T14:21:34;19.30;34.70
57564;DHT22;43400;45.926;6.724;2023-02-01T14:26:46;18.50;36.10
57564;DHT22;43400;45.926;6.724;2023-02-01T14:29:32;18.20;37.00
57564;DHT22;43400;45.926;6.724;2023-02-01T14:34:57;18.10;37.70
57564;DHT22;43400;45.926;6.724;2023-02-01T14:37:33;18.70;37.00
57564;DHT22;43400;45.926;6.724;2023-02-01T14:40:15;18.00;37.00
57564;DHT22;43400;45.926;6.724;2023-02-01T14:42:49;17.70;37.90
57564;DHT22;43400;45.926;6.724;2023-02-01T14:47:55;17.80;38.00
57564;DHT22;43400;45.926;6.724;2023-02-01T14:50:49;17.20;38.30
57564;DHT22;43400;45.926;6.724;2023-02-01T14:53:33;16.80;38.80
57564;DHT22;43400;45.926;6.724;2023-02-01T14:56:07;17.20;38.50
57564;DHT22;43400;45.926;6.724;2023-02-01T15:01:29;17.30;38.30
57564;DHT22;43400;45.926;6.724;2023-02-01T15:04:12;16.90;39.40
57564;DHT22;43400;45.926;6.724;2023-02-01T15:06:51;16.90;39.40
57564;DHT22;43400;45.926;6.724;2023-02-01T15:09:28;16.60;39.90
57564;DHT22;43400;45.926;6.724;2023-02-01T15:12:04;16.90;39.90
57564;DHT22;43400;45.926;6.724;2023-02-01T15:17:29;16.50;39.60
57564;DHT22;43400;45.926;6.724;2023-02-01T15:20:19;16.50;40.70
57564;DHT22;43400;45.926;6.724;2023-02-01T15:23:01;16.00;40.50
57564;DHT22;43400;45.926;6.724;2023-02-01T15:25:36;16.10;40.40
57564;DHT22;43400;45.926;6.724;2023-02-01T15:28:16;15.60;41.90
57564;DHT22;43400;45.926;6.724;2023-02-01T15:31:00;15.40;42.20
57564;DHT22;43400;45.926;6.724;2023-02-01T15:33:32;15.70;42.20
57564;DHT22;43400;45.926;6.724;2023-02-01T15:36:17;16.20;42.70
57564;DHT22;43400;45.926;6.724;2023-02-01T15:39:16;16.00;43.40
57564;DHT22;43400;45.926;6.724;2023-02-01T15:41:51;15.80;43.60
57564;DHT22;43400;45.926;6.724;2023-02-01T15:44:33;15.30;44.30
57564;DHT22;43400;45.926;6.724;2023-02-01T15:47:16;13.80;46.60
57564;DHT22;43400;45.926;6.724;2023-02-01T15:49:55;13.10;48.10
57564;DHT22;43400;45.926;6.724;2023-02-01T15:52:34;13.30;48.30
57564;DHT22;43400;45.926;6.724;2023-02-01T15:55:21;13.20;49.00
57564;DHT22;43400;45.926;6.724;2023-02-01T15:57:54;13.10;48.60
57564;DHT22;43400;45.926;6.724;2023-02-01T16:00:52;13.00;49.20
57564;DHT22;43400;45.926;6.724;2023-02-01T16:03:38;13.10;49.10
57564;DHT22;43400;45.926;6.724;2023-02-01T16:06:27;11.70;51.00
57564;DHT22;43400;45.926;6.724;2023-02-01T16:09:01;10.30;54.10
57564;DHT22;43400;45.926;6.724;2023-02-01T16:11:52;9.20;57.40
57564;DHT22;43400;45.926;6.724;2023-02-01T16:14:25;8.40;59.30
57564;DHT22;43400;45.926;6.724;2023-02-01T16:16:58;8.00;60.00
57564;DHT22;43400;45.926;6.724;2023-02-01T16:19:30;7.80;61.60
57564;DHT22;43400;45.926;6.724;2023-02-01T16:22:02;7.50;62.10
57564;DHT22;43400;45.926;6.724;2023-02-01T16:24:33;7.30;62.70
57564;DHT22;43400;45.926;6.724;2023-02-01T16:27:05;7.00;64.10
57564;DHT22;43400;45.926;6.724;2023-02-01T16:29:37;6.80;65.20
57564;DHT22;43400;45.926;6.724;2023-02-01T16:32:20;6.60;66.00
57564;DHT22;43400;45.926;6.724;2023-02-01T16:34:52;6.50;66.50
57564;DHT22;43400;45.926;6.724;2023-02-01T16:37:25;6.30;67.70
57564;DHT22;43400;45.926;6.724;2023-02-01T16:39:56;6.10;68.90
57564;DHT22;43400;45.926;6.724;2023-02-01T16:42:28;6.00;69.50
57564;DHT22;43400;45.926;6.724;2023-02-01T16:45:00;5.80;70.30
57564;DHT22;43400;45.926;6.724;2023-02-01T16:47:31;5.70;70.90
57564;DHT22;43400;45.926;6.724;2023-02-01T16:50:03;5.50;71.80
57564;DHT22;43400;45.926;6.724;2023-02-01T16:52:36;5.40;72.10
57564;DHT22;43400;45.926;6.724;2023-02-01T16:55:15;5.40;72.20
57564;DHT22;43400;45.926;6.724;2023-02-01T16:57:47;5.40;72.70
57564;DHT22;43400;45.926;6.724;2023-02-01T17:00:19;5.20;73.50
57564;DHT22;43400;45.926;6.724;2023-02-01T17:02:52;5.00;74.40
57564;DHT22;43400;45.926;6.724;2023-02-01T17:05:24;5.00;74.80
57564;DHT22;43400;45.926;6.724;2023-02-01T17:08:00;4.90;74.90
57564;DHT22;43400;45.926;6.724;2023-02-01T17:10:33;4.80;76.00
57564;DHT22;43400;45.926;6.724;2023-02-01T17:13:07;4.80;75.60
57564;DHT22;43400;45.926;6.724;2023-02-01T17:15:39;4.80;75.40
57564;DHT22;43400;45.926;6.724;2023-02-01T17:18:15;4.60;76.50
57564;DHT22;43400;45.926;6.724;2023-02-01T17:20:47;4.30;77.40
57564;DHT22;43400;45.926;6.724;2023-02-01T17:23:19;4.20;78.60
57564;DHT22;43400;45.926;6.724;2023-02-01T17:25:51;4.20;78.60
57564;DHT22;43400;45.926;6.724;2023-02-01T17:28:24;4.20;79.20
57564;DHT22;43400;45.926;6.724;2023-02-01T17:30:56;4.10;80.00
57564;DHT22;43400;45.926;6.724;2023-02-01T17:33:34;4.10;79.70
57564;DHT22;43400;45.926;6.724;2023-02-01T17:36:08;4.10;80.00
57564;DHT22;43400;45.926;6.724;2023-02-01T17:38:42;4.10;80.30
57564;DHT22;43400;45.926;6.724;2023-02-01T17:41:14;4.10;80.60
57564;DHT22;43400;45.926;6.724;2023-02-01T17:43:46;4.00;80.70
57564;DHT22;43400;45.926;6.724;2023-02-01T17:46:18;4.10;80.80
57564;DHT22;43400;45.926;6.724;2023-02-01T17:48:50;4.00;81.00
57564;DHT22;43400;45.926;6.724;2023-02-01T17:51:25;3.80;81.70
57564;DHT22;43400;45.926;6.724;2023-02-01T17:53:56;3.60;83.00
57564;DHT22;43400;45.926;6.724;2023-02-01T17:56:28;3.60;83.70
57564;DHT22;43400;45.926;6.724;2023-02-01T17:59:00;3.60;83.50
57564;DHT22;43400;45.926;6.724;2023-02-01T18:01:31;3.70;83.20
57564;DHT22;43400;45.926;6.724;2023-02-01T18:04:03;3.60;83.30
57564;DHT22;43400;45.926;6.724;2023-02-01T18:06:34;3.60;83.50
57564;DHT22;43400;45.926;6.724;2023-02-01T18:09:06;3.50;84.40
57564;DHT22;43400;45.926;6.724;2023-02-01T18:11:38;3.50;84.10
57564;DHT22;43400;45.926;6.724;2023-02-01T18:14:11;3.60;84.10
57564;DHT22;43400;45.926;6.724;2023-02-01T18:16:43;3.60;83.90
57564;DHT22;43400;45.926;6.724;2023-02-01T18:19:15;3.60;84.50
57564;DHT22;43400;45.926;6.724;2023-02-01T18:21:46;3.50;85.40
57564;DHT22;43400;45.926;6.724;2023-02-01T18:24:18;3.50;85.60
57564;DHT22;43400;45.926;6.724;2023-02-01T18:26:50;3.60;85.70
57564;DHT22;43400;45.926;6.724;2023-02-01T18:29:21;3.60;85.90
57564;DHT22;43400;45.926;6.724;2023-02-01T18:31:54;3.60;85.70
57564;DHT22;43400;45.926;6.724;2023-02-01T18:34:26;3.60;85.40
57564;DHT22;43400;45.926;6.724;2023-02-01T18:36:57;3.50;85.90
57564;DHT22;43400;45.926;6.724;2023-02-01T18:39:29;3.40;86.10
57564;DHT22;43400;45.926;6.724;2023-02-01T18:42:01;3.40;86.90
57564;DHT22;43400;45.926;6.724;2023-02-01T18:44:32;3.50;86.90
57564;DHT22;43400;45.926;6.724;2023-02-01T18:47:04;3.50;86.50
57564;DHT22;43400;45.926;6.724;2023-02-01T18:49:35;3.50;86.70
57564;DHT22;43400;45.926;6.724;2023-02-01T18:52:09;3.50;86.50
57564;DHT22;43400;45.926;6.724;2023-02-01T18:54:42;3.50;86.70
57564;DHT22;43400;45.926;6.724;2023-02-01T18:57:14;3.50;87.00
57564;DHT22;43400;45.926;6.724;2023-02-01T18:59:46;3.50;87.50
57564;DHT22;43400;45.926;6.724;2023-02-01T19:02:17;3.50;87.70
57564;DHT22;43400;45.926;6.724;2023-02-01T19:04:49;3.50;86.90
57564;DHT22;43400;45.926;6.724;2023-02-01T19:07:21;3.40;87.30
57564;DHT22;43400;45.926;6.724;2023-02-01T19:09:53;3.30;87.60
57564;DHT22;43400;45.926;6.724;2023-02-01T19:12:24;3.40;87.50